Time;durP1;ratioP1;P1;durP2;ratioP2;P2;SDS_P1;SDS_P2;PMS_P1;PMS_P2;Temp;Humidity;BMP_temperature;BMP_pressure;BME280_temperature;BME280_humidity;BME280_pressure;Samples;Min_cycle;Max_cycle;Signal;HPM_P1;HPM_P2
2023/06/21 00:00:16;;;;;;;18.55;12.90;;;;;;;19.28;100.00;100209.31;4965235;28;20789;-67
2023/06/21 00:02:43;;;;;;;15.00;12.40;;;;;;;19.23;100.00;100200.50;4969142;28;20213;-66
2023/06/21 00:08:48;;;;;;;18.17;12.10;;;;;;;19.17;100.00;100214.06;4967512;28;20225;-67
2023/06/21 00:11:14;;;;;;;19.77;12.73;;;;;;;19.24;100.00;100212.13;4968774;28;20201;-67
2023/06/21 00:13:40;;;;;;;18.05;12.38;;;;;;;19.28;100.00;100219.19;4967959;28;20202;-66
2023/06/21 00:16:07;;;;;;;17.35;12.77;;;;;;;19.15;100.00;100217.69;4970188;28;20204;-66
2023/06/21 00:18:33;;;;;;;18.63;13.13;;;;;;;19.25;100.00;100204.03;4967607;28;20311;-67
2023/06/21 00:21:01;;;;;;;20.27;13.63;;;;;;;19.31;100.00;100214.63;4961753;28;20728;-67
2023/06/21 00:23:27;;;;;;;19.93;12.40;;;;;;;19.20;100.00;100208.59;4965991;28;20581;-67
2023/06/21 00:25:54;;;;;;;17.17;12.87;;;;;;;19.09;100.00;100219.63;4969469;28;20221;-67
2023/06/21 00:28:21;;;;;;;16.60;11.93;;;;;;;19.18;100.00;100233.72;4971821;28;20232;-66
2023/06/21 00:30:47;;;;;;;19.50;12.53;;;;;;;19.02;100.00;100233.22;4973417;28;20208;-66
2023/06/21 00:33:13;;;;;;;15.60;10.80;;;;;;;18.91;100.00;100233.50;4972105;28;20205;-66
2023/06/21 00:35:40;;;;;;;17.33;12.53;;;;;;;19.09;100.00;100234.84;4967549;28;20643;-67
2023/06/21 00:38:06;;;;;;;14.97;10.87;;;;;;;19.14;100.00;100242.78;4968332;28;20675;-66
2023/06/21 00:40:33;;;;;;;14.37;10.87;;;;;;;19.08;100.00;100249.19;4969778;28;20204;-67
2023/06/21 00:43:01;;;;;;;14.47;10.57;;;;;;;18.95;100.00;100248.59;4969779;28;20246;-67
2023/06/21 00:45:28;;;;;;;12.87;9.93;;;;;;;18.81;100.00;100249.81;4972107;28;20202;-66
2023/06/21 00:47:57;;;;;;;14.40;10.73;;;;;;;18.68;100.00;100258.13;4972865;28;20229;-66
2023/06/21 00:50:25;;;;;;;15.87;11.33;;;;;;;18.78;100.00;100264.19;4971616;28;20206;-66
2023/06/21 00:52:52;;;;;;;15.03;11.43;;;;;;;18.64;100.00;100261.81;4969199;28;20206;-66
2023/06/21 00:55:19;;;;;;;19.37;10.20;;;;;;;18.73;100.00;100266.09;4973093;28;20204;-67
2023/06/21 00:57:46;;;;;;;14.13;9.63;;;;;;;18.58;100.00;100279.81;4972094;28;20210;-67
2023/06/21 01:00:17;;;;;;;11.70;9.70;;;;;;;18.44;100.00;100272.06;4969549;28;20648;-66
2023/06/21 01:02:43;;;;;;;13.73;10.03;;;;;;;18.49;100.00;100280.88;4971112;28;20204;-66
2023/06/21 01:05:10;;;;;;;14.77;9.80;;;;;;;18.43;100.00;100281.91;4969609;28;20265;-66
2023/06/21 01:07:47;;;;;;;11.53;8.70;;;;;;;18.46;100.00;100284.50;4970786;28;20280;-66
2023/06/21 01:10:32;;;;;;;11.47;8.60;;;;;;;18.39;100.00;100280.16;4968532;28;20209;-66
2023/06/21 01:13:24;;;;;;;11.43;9.10;;;;;;;18.28;100.00;100281.31;4968229;28;20677;-66
2023/06/21 01:15:57;;;;;;;11.17;8.30;;;;;;;18.09;100.00;100278.09;4971644;28;20225;-67
2023/06/21 01:18:26;;;;;;;12.97;8.53;;;;;;;18.21;100.00;100283.22;4969860;28;20228;-66
2023/06/21 01:20:57;;;;;;;12.20;8.90;;;;;;;18.21;100.00;100279.66;4971763;28;20225;-67
2023/06/21 01:23:45;;;;;;;12.57;9.40;;;;;;;18.29;100.00;100291.09;4968644;28;20917;-66
2023/06/21 01:26:36;;;;;;;13.70;9.00;;;;;;;18.21;100.00;100282.34;4966081;28;20233;-66
2023/06/21 01:29:07;;;;;;;10.97;8.63;;;;;;;18.17;100.00;100290.44;4966592;28;20225;-66
2023/06/21 01:31:35;;;;;;;12.23;8.87;;;;;;;18.10;100.00;100294.16;4968374;28;20224;-65
2023/06/21 01:34:04;;;;;;;13.60;9.33;;;;;;;18.20;100.00;100285.94;4968072;28;20201;-68
2023/06/21 01:36:31;;;;;;;11.00;8.33;;;;;;;18.10;100.00;100286.13;4971617;28;20194;-67
2023/06/21 01:38:58;;;;;;;12.63;8.77;;;;;;;18.05;100.00;100288.00;4970350;28;20221;-67
2023/06/21 01:41:25;;;;;;;10.93;8.53;;;;;;;18.05;100.00;100292.47;4969993;28;20198;-66
2023/06/21 01:43:56;;;;;;;10.97;7.77;;;;;;;17.96;100.00;100288.16;4966005;28;20257;-66
2023/06/21 01:46:26;;;;;;;11.00;8.03;;;;;;;17.89;100.00;100280.25;4971645;28;20396;-66
2023/06/21 01:48:54;;;;;;;14.00;8.07;;;;;;;17.86;100.00;100278.53;4970310;28;20223;-66
2023/06/21 01:51:21;;;;;;;13.43;8.87;;;;;;;17.87;100.00;100280.28;4967253;28;20205;-68
2023/06/21 01:53:48;;;;;;;13.40;7.83;;;;;;;17.84;100.00;100286.59;4970938;28;20696;-66
2023/06/21 01:56:17;;;;;;;14.10;8.43;;;;;;;17.89;100.00;100289.19;4970109;28;20730;-67
2023/06/21 01:58:46;;;;;;;10.00;8.47;;;;;;;17.83;100.00;100286.63;4967576;28;20268;-66
2023/06/21 02:01:14;;;;;;;12.70;8.90;;;;;;;17.83;100.00;100287.50;4968536;28;20212;-66
2023/06/21 02:03:44;;;;;;;12.30;8.67;;;;;;;17.93;100.00;100290.88;4969265;28;20654;-66
2023/06/21 02:06:12;;;;;;;10.67;8.33;;;;;;;17.93;100.00;100290.88;4972017;28;20394;-67
2023/06/21 02:08:40;;;;;;;11.97;8.50;;;;;;;17.82;100.00;100284.84;4971411;28;20225;-67
2023/06/21 02:11:07;;;;;;;12.33;8.80;;;;;;;17.80;100.00;100281.31;4966942;28;20590;-66
2023/06/21 02:13:33;;;;;;;11.47;8.83;;;;;;;17.66;100.00;100283.31;4967479;28;20193;-66
2023/06/21 02:16:00;;;;;;;14.30;8.83;;;;;;;17.58;100.00;100286.09;4972067;28;20209;-66
2023/06/21 02:18:26;;;;;;;12.70;9.30;;;;;;;17.51;100.00;100282.66;4969162;28;20228;-66
2023/06/21 02:20:53;;;;;;;12.97;8.87;;;;;;;17.63;100.00;100281.59;4965962;28;20228;-66
2023/06/21 02:23:20;;;;;;;11.93;8.63;;;;;;;17.76;100.00;100295.69;4970999;28;20205;-67
2023/06/21 02:25:46;;;;;;;11.97;8.90;;;;;;;17.66;100.00;100289.56;4970798;28;20201;-66
2023/06/21 02:28:12;;;;;;;10.80;8.37;;;;;;;17.48;100.00;100288.06;4968011;28;20604;-66
2023/06/21 02:30:39;;;;;;;13.03;9.20;;;;;;;17.37;100.00;100292.72;4968465;28;20297;-64
2023/06/21 02:33:06;;;;;;;13.47;9.17;;;;;;;17.30;100.00;100288.38;4969271;28;20728;-66
2023/06/21 02:35:32;;;;;;;14.13;8.60;;;;;;;17.20;100.00;100303.66;4966259;28;20194;-67
2023/06/21 02:38:01;;;;;;;11.93;7.97;;;;;;;17.13;100.00;100306.47;4969849;28;20315;-67
2023/06/21 02:40:27;;;;;;;9.90;8.27;;;;;;;17.01;100.00;100307.53;4968208;28;20208;-66
2023/06/21 02:42:54;;;;;;;12.43;8.50;;;;;;;17.05;100.00;100306.56;4966436;28;20300;-66
2023/06/21 02:45:20;;;;;;;12.50;8.80;;;;;;;17.16;100.00;100309.97;4966259;28;20292;-66
2023/06/21 02:47:47;;;;;;;12.80;8.20;;;;;;;17.17;100.00;100317.09;4970216;28;20304;-66
2023/06/21 02:50:16;;;;;;;13.23;8.60;;;;;;;17.14;100.00;100324.28;4970659;28;20256;-66
2023/06/21 02:52:42;;;;;;;14.47;8.80;;;;;;;17.13;100.00;100317.16;4969418;28;20198;-66
2023/06/21 02:55:10;;;;;;;10.53;8.40;;;;;;;17.09;100.00;100327.03;4947960;28;20201;-66
2023/06/21 02:57:37;;;;;;;11.50;8.57;;;;;;;16.99;100.00;100341.44;4967032;28;20213;-66
2023/06/21 03:00:21;;;;;;;10.03;8.70;;;;;;;16.89;100.00;100343.38;4970408;28;20193;-67
2023/06/21 03:02:49;;;;;;;12.73;8.87;;;;;;;16.79;100.00;100352.41;4968291;28;20309;-66
2023/06/21 03:05:16;;;;;;;12.40;9.40;;;;;;;16.75;100.00;100355.13;4967525;28;20555;-65
2023/06/21 03:07:45;;;;;;;13.07;9.23;;;;;;;16.74;100.00;100356.91;4969688;28;20602;-66
2023/06/21 03:10:13;;;;;;;12.47;9.17;;;;;;;16.91;100.00;100362.97;4969360;28;20312;-67
2023/06/21 03:12:41;;;;;;;11.87;9.07;;;;;;;17.19;100.00;100358.09;4966686;28;20232;-66
2023/06/21 03:15:09;;;;;;;11.87;9.20;;;;;;;17.29;100.00;100355.31;4969297;28;20197;-66
2023/06/21 03:17:36;;;;;;;12.37;9.80;;;;;;;17.46;100.00;100377.34;4970005;28;20296;-65
2023/06/21 03:20:09;;;;;;;14.17;9.70;;;;;;;17.49;100.00;100380.88;4967350;28;20591;-66
2023/06/21 03:22:35;;;;;;;13.27;9.10;;;;;;;17.51;100.00;100381.72;4965409;28;20206;-66
2023/06/21 03:25:02;;;;;;;10.53;8.73;;;;;;;17.61;100.00;100386.94;4970125;28;20205;-66
2023/06/21 03:27:28;;;;;;;15.53;9.37;;;;;;;17.64;100.00;100387.81;4970678;28;20662;-65
2023/06/21 03:29:55;;;;;;;16.53;10.10;;;;;;;17.65;100.00;100381.53;4968432;28;20203;-66
2023/06/21 03:32:21;;;;;;;12.43;9.40;;;;;;;17.81;100.00;100384.88;4967793;28;20201;-66
2023/06/21 03:34:47;;;;;;;15.47;9.47;;;;;;;17.81;100.00;100379.53;4968795;28;20248;-68
2023/06/21 03:37:16;;;;;;;13.77;9.00;;;;;;;17.81;100.00;100371.50;4967834;28;20213;-66
2023/06/21 03:39:43;;;;;;;11.40;8.73;;;;;;;17.74;100.00;100386.78;4969323;28;20686;-66
2023/06/21 03:42:10;;;;;;;12.23;8.73;;;;;;;17.77;100.00;100385.84;4967554;28;20293;-66
2023/06/21 03:44:36;;;;;;;11.67;9.13;;;;;;;17.83;100.00;100385.75;4968862;28;20827;-66
2023/06/21 03:47:03;;;;;;;13.07;8.87;;;;;;;17.89;100.00;100384.75;4970154;28;20713;-66
2023/06/21 03:49:30;;;;;;;12.63;9.40;;;;;;;17.95;100.00;100396.25;4967951;28;20197;-66
2023/06/21 03:51:56;;;;;;;15.03;9.57;;;;;;;18.12;100.00;100394.19;4969964;28;20685;-67
2023/06/21 03:54:22;;;;;;;12.83;9.10;;;;;;;18.13;100.00;100400.44;4968731;28;20724;-66
2023/06/21 03:56:49;;;;;;;12.80;9.27;;;;;;;18.23;100.00;100398.47;4970149;28;20197;-66
2023/06/21 03:59:15;;;;;;;10.17;8.33;;;;;;;18.29;100.00;100403.72;4968794;28;20232;-66
2023/06/21 04:01:41;;;;;;;12.00;8.67;;;;;;;18.29;100.00;100399.22;4966918;28;20208;-66
2023/06/21 04:04:08;;;;;;;12.50;8.27;;;;;;;18.37;100.00;100404.47;4968773;28;20280;-66
2023/06/21 04:06:34;;;;;;;12.47;9.17;;;;;;;18.43;100.00;100405.25;4967715;28;20505;-66
2023/06/21 04:09:01;;;;;;;10.03;8.30;;;;;;;18.53;100.00;100411.31;4968808;28;20236;-65
2023/06/21 04:11:27;;;;;;;14.37;8.27;;;;;;;18.62;100.00;100408.50;4969194;28;20201;-66
2023/06/21 04:13:54;;;;;;;12.93;8.87;;;;;;;18.74;100.00;100427.03;4964538;28;20206;-66
2023/06/21 04:16:20;;;;;;;12.77;8.80;;;;;;;18.92;100.00;100424.91;4969365;28;20197;-66
2023/06/21 04:18:46;;;;;;;13.00;7.93;;;;;;;19.12;100.00;100427.19;4967282;28;20218;-65
2023/06/21 04:21:13;;;;;;;9.33;7.83;;;;;;;19.34;100.00;100428.50;4965987;28;20206;-67
2023/06/21 04:23:40;;;;;;;10.13;7.40;;;;;;;19.42;100.00;100413.97;4965823;28;20240;-66
2023/06/21 04:26:06;;;;;;;10.67;7.67;;;;;;;19.62;100.00;100418.06;4964062;28;20292;-65
2023/06/21 04:28:33;;;;;;;11.27;7.38;;;;;;;19.72;100.00;100419.59;4965125;28;20231;-65
2023/06/21 04:31:00;;;;;;;12.10;7.80;;;;;;;19.79;100.00;100401.53;4966552;28;20215;-66
2023/06/21 04:33:30;;;;;;;12.10;7.78;;;;;;;19.88;100.00;100407.56;4964050;28;20205;-66
2023/06/21 04:35:57;;;;;;;9.90;7.57;;;;;;;20.02;100.00;100408.13;4963957;28;20212;-65
2023/06/21 04:38:23;;;;;;;11.90;8.25;;;;;;;20.20;100.00;100422.91;4963575;28;20218;-67
2023/06/21 04:40:51;;;;;;;9.48;7.55;;;;;;;20.34;100.00;100426.09;4966804;28;20728;-66
2023/06/21 04:43:18;;;;;;;12.13;8.40;;;;;;;20.38;100.00;100432.28;4969591;28;20198;-66
2023/06/21 04:45:48;;;;;;;11.40;7.82;;;;;;;20.41;100.00;100443.00;4970714;28;20380;-66
2023/06/21 04:48:15;;;;;;;13.60;7.63;;;;;;;20.40;100.00;100441.22;4964256;28;20233;-66
2023/06/21 04:50:45;;;;;;;10.88;8.63;;;;;;;20.37;100.00;100446.66;4964007;28;20717;-66
2023/06/21 04:53:12;;;;;;;15.65;8.45;;;;;;;20.35;100.00;100443.13;4968391;28;20240;-66
2023/06/21 04:55:42;;;;;;;12.77;8.75;;;;;;;20.33;100.00;100440.47;4968308;28;20204;-66
2023/06/21 04:58:09;;;;;;;11.63;8.27;;;;;;;20.25;100.00;100442.47;4963214;28;20589;-66
2023/06/21 05:00:36;;;;;;;12.15;8.48;;;;;;;20.37;100.00;100441.28;4969467;28;20198;-65
2023/06/21 05:03:03;;;;;;;13.88;9.13;;;;;;;20.47;100.00;100442.88;4968106;28;20205;-66
2023/06/21 05:05:30;;;;;;;13.02;9.25;;;;;;;20.62;100.00;100447.81;4968229;28;20193;-66
2023/06/21 05:08:00;;;;;;;13.02;8.48;;;;;;;21.01;100.00;100444.97;4964850;28;20713;-66
2023/06/21 05:10:26;;;;;;;13.07;8.60;;;;;;;21.41;100.00;100446.53;4968852;28;20206;-67
2023/06/21 05:12:53;;;;;;;12.00;8.43;;;;;;;21.80;100.00;100458.78;4968063;28;20288;-66
2023/06/21 05:15:19;;;;;;;13.70;8.25;;;;;;;22.01;100.00;100456.31;4972516;28;20216;-66
2023/06/21 05:17:46;;;;;;;11.43;8.88;;;;;;;22.14;100.00;100453.22;4971804;28;20255;-66
2023/06/21 05:20:13;;;;;;;16.38;8.98;;;;;;;22.38;100.00;100459.59;4972262;28;20233;-67
2023/06/21 05:22:42;;;;;;;11.25;7.40;;;;;;;22.62;100.00;100463.28;4970873;28;20646;-66
2023/06/21 05:25:09;;;;;;;12.95;8.55;;;;;;;22.95;100.00;100463.94;4968401;28;20209;-65
2023/06/21 05:27:36;;;;;;;11.93;8.40;;;;;;;23.08;98.64;100469.75;4971945;28;20229;-66
2023/06/21 05:30:03;;;;;;;11.65;7.72;;;;;;;23.21;97.75;100467.47;4968037;28;20658;-66
2023/06/21 05:32:29;;;;;;;11.10;8.25;;;;;;;23.14;96.88;100470.41;4959003;28;20220;-67
2023/06/21 05:34:56;;;;;;;12.30;8.27;;;;;;;22.96;96.44;100483.72;4969141;28;20662;-68
2023/06/21 05:37:22;;;;;;;12.10;8.95;;;;;;;22.69;97.29;100474.72;4967183;28;20236;-67
2023/06/21 05:39:49;;;;;;;15.98;8.45;;;;;;;22.50;98.37;100464.59;4968711;28;20197;-68
2023/06/21 05:42:15;;;;;;;15.73;8.15;;;;;;;22.38;99.55;100467.69;4965957;28;20204;-69
2023/06/21 05:44:42;;;;;;;10.75;7.88;;;;;;;22.30;100.00;100467.06;4970436;28;20288;-67
2023/06/21 05:47:08;;;;;;;12.02;8.63;;;;;;;22.18;99.87;100462.97;4968286;28;20236;-67
2023/06/21 05:49:34;;;;;;;10.48;7.65;;;;;;;22.05;100.00;100472.41;4961168;28;20611;-69
2023/06/21 05:52:01;;;;;;;12.68;7.80;;;;;;;22.00;100.00;100476.13;4956513;28;20304;-68
2023/06/21 05:54:30;;;;;;;13.77;8.60;;;;;;;21.96;100.00;100478.03;4967671;28;20206;-68
2023/06/21 05:56:56;;;;;;;13.88;7.70;;;;;;;21.93;100.00;100478.13;4968526;28;20724;-68
2023/06/21 05:59:23;;;;;;;10.77;8.13;;;;;;;21.93;100.00;100478.13;4963035;28;20244;-68
2023/06/21 06:01:49;;;;;;;12.43;8.20;;;;;;;21.93;100.00;100479.94;4970393;28;20208;-68
2023/06/21 06:04:18;;;;;;;10.18;8.02;;;;;;;21.86;100.00;100480.16;4967747;28;20209;-69
2023/06/21 06:06:44;;;;;;;13.38;8.15;;;;;;;21.93;100.00;100491.63;4970038;28;20677;-66
2023/06/21 06:09:11;;;;;;;9.77;7.53;;;;;;;21.87;100.00;100489.13;4969114;28;20230;-65
2023/06/21 06:11:38;;;;;;;13.73;7.88;;;;;;;21.82;100.00;100491.97;4967047;28;20229;-67
2023/06/21 06:14:04;;;;;;;11.95;8.13;;;;;;;21.86;100.00;100504.41;4963100;28;20630;-66
2023/06/21 06:16:30;;;;;;;14.00;8.80;;;;;;;21.85;100.00;100502.66;4967715;28;20206;-69
2023/06/21 06:18:57;;;;;;;10.10;8.27;;;;;;;21.85;100.00;100510.75;4940294;28;20304;-69
2023/06/21 06:21:23;;;;;;;11.82;8.32;;;;;;;21.82;100.00;100509.94;4970208;28;20284;-69
2023/06/21 06:23:51;;;;;;;8.90;7.70;;;;;;;21.83;100.00;100515.31;4964344;28;20669;-68
2023/06/21 06:26:22;;;;;;;9.93;8.13;;;;;;;21.87;100.00;100500.78;4970372;28;20206;-67
2023/06/21 06:28:54;;;;;;;14.20;7.82;;;;;;;21.89;100.00;100501.63;4969648;28;20718;-68
2023/06/21 06:31:24;;;;;;;11.85;7.90;;;;;;;21.95;100.00;100502.34;4968816;28;20204;-69
2023/06/21 06:33:52;;;;;;;11.50;8.48;;;;;;;22.01;98.50;100505.75;4970532;28;20249;-68
2023/06/21 06:36:19;;;;;;;13.27;8.30;;;;;;;21.85;98.23;100515.25;4968731;28;20208;-70
2023/06/21 06:38:46;;;;;;;11.57;7.82;;;;;;;21.83;99.19;100523.38;4968888;28;20244;-67
2023/06/21 06:41:13;;;;;;;14.13;8.10;;;;;;;21.82;99.79;100534.22;4951629;28;20206;-67
2023/06/21 06:43:39;;;;;;;10.25;8.55;;;;;;;21.87;99.09;100529.56;4963637;28;20208;-69
2023/06/21 06:46:06;;;;;;;12.15;8.18;;;;;;;21.95;99.44;100534.72;4957802;28;20212;-68
2023/06/21 06:48:32;;;;;;;9.68;7.60;;;;;;;22.07;98.67;100532.56;4968319;28;20237;-69
2023/06/21 06:50:59;;;;;;;11.55;8.77;;;;;;;22.27;97.44;100540.03;4969238;28;20209;-68
2023/06/21 06:53:25;;;;;;;13.25;8.02;;;;;;;22.22;97.15;100543.81;4967784;28;20202;-70
2023/06/21 06:55:52;;;;;;;10.75;7.85;;;;;;;22.36;95.90;100546.94;4950656;28;20210;-67
2023/06/21 06:58:19;;;;;;;10.65;7.80;;;;;;;22.38;95.88;100545.06;4967870;28;20220;-68
2023/06/21 07:00:46;;;;;;;9.63;7.70;;;;;;;22.39;95.95;100546.81;4967011;28;20206;-69
2023/06/21 07:03:12;;;;;;;10.50;7.68;;;;;;;22.24;96.39;100537.44;4964867;28;20212;-70
2023/06/21 07:05:43;;;;;;;15.43;7.82;;;;;;;22.41;95.58;100553.94;4968250;28;20197;-69
2023/06/21 07:08:11;;;;;;;11.98;7.88;;;;;;;22.64;95.11;100542.41;4967508;28;20303;-70
2023/06/21 07:10:38;;;;;;;8.95;7.25;;;;;;;23.04;93.77;100547.34;4970479;28;20201;-68
2023/06/21 07:13:05;;;;;;;9.77;7.50;;;;;;;23.26;90.82;100552.88;4968678;28;20206;-68
2023/06/21 07:15:33;;;;;;;10.15;7.72;;;;;;;23.34;91.68;100560.69;4965362;28;20253;-67
2023/06/21 07:17:59;;;;;;;11.23;7.47;;;;;;;23.58;89.68;100564.34;4965746;28;20598;-69
2023/06/21 07:20:26;;;;;;;14.98;7.72;;;;;;;23.55;88.64;100561.72;4951960;28;20205;-68
2023/06/21 07:22:53;;;;;;;14.55;7.47;;;;;;;23.68;88.83;100554.97;4966185;28;20252;-66
2023/06/21 07:25:20;;;;;;;9.68;7.18;;;;;;;23.61;87.38;100545.28;4968677;28;20202;-69
2023/06/21 07:27:46;;;;;;;14.93;8.10;;;;;;;23.49;88.78;100538.50;4968178;28;20218;-68
2023/06/21 07:30:13;;;;;;;13.55;7.28;;;;;;;23.47;88.92;100544.91;4968436;28;20205;-70
2023/06/21 07:32:39;;;;;;;12.90;7.35;;;;;;;23.75;87.77;100546.56;4965286;28;20193;-67
2023/06/21 07:35:07;;;;;;;12.68;7.28;;;;;;;23.90;86.92;100557.72;4969713;28;20510;-67
2023/06/21 07:37:34;;;;;;;9.95;7.03;;;;;;;24.07;86.81;100568.78;4968271;28;20304;-67
2023/06/21 07:40:01;;;;;;;10.30;8.02;;;;;;;24.45;83.62;100572.69;4969537;28;20256;-69
2023/06/21 07:42:27;;;;;;;20.52;8.73;;;;;;;24.51;83.60;100560.72;4966070;28;20209;-70
2023/06/21 07:44:55;;;;;;;12.07;7.80;;;;;;;24.86;82.39;100559.25;4967333;28;20201;-69
2023/06/21 07:47:22;;;;;;;14.23;8.38;;;;;;;24.73;82.13;100552.56;4949902;28;20712;-69
2023/06/21 07:49:49;;;;;;;11.40;7.90;;;;;;;24.87;80.40;100551.06;4965655;28;20197;-69
2023/06/21 07:52:16;;;;;;;9.52;6.85;;;;;;;25.20;78.58;100551.41;4964198;28;20202;-70
2023/06/21 07:54:47;;;;;;;12.10;7.47;;;;;;;25.39;77.92;100553.31;4967786;28;20269;-68
2023/06/21 07:57:16;;;;;;;10.85;7.50;;;;;;;25.53;77.58;100556.28;4967412;28;20228;-69
2023/06/21 07:59:43;;;;;;;9.35;6.82;;;;;;;25.89;75.58;100557.31;4964344;28;20284;-69
2023/06/21 08:02:09;;;;;;;13.13;6.80;;;;;;;26.29;74.82;100562.69;4963320;28;20217;-69
2023/06/21 08:04:37;;;;;;;10.10;6.93;;;;;;;25.99;74.86;100563.19;4968564;28;20205;-69
2023/06/21 08:09:33;;;;;;;12.05;7.47;;;;;;;27.12;70.59;100553.06;4960622;28;20233;-68
2023/06/21 08:12:02;;;;;;;13.25;8.30;;;;;;;26.96;70.79;100546.63;4967074;28;20194;-66
2023/06/21 08:14:29;;;;;;;25.02;11.02;;;;;;;27.51;69.91;100540.13;4969224;28;20289;-65
2023/06/21 08:16:55;;;;;;;13.75;7.65;;;;;;;27.99;68.26;100550.19;4965323;28;20197;-65
2023/06/21 08:19:21;;;;;;;9.52;7.32;;;;;;;27.48;69.61;100552.94;4986411;28;20601;-67
2023/06/21 08:21:48;;;;;;;10.00;7.40;;;;;;;27.61;67.36;100541.38;4986527;28;20197;-66
2023/06/21 08:24:14;;;;;;;9.23;7.45;;;;;;;27.43;69.20;100544.16;4986674;28;20209;-65
2023/06/21 08:26:41;;;;;;;9.98;7.10;;;;;;;27.98;67.57;100546.59;4985398;28;20204;-67
2023/06/21 08:29:07;;;;;;;10.52;7.13;;;;;;;28.38;66.23;100537.03;4986855;28;20714;-66
2023/06/21 08:31:33;;;;;;;11.05;7.43;;;;;;;29.10;64.59;100540.97;4987545;28;20197;-66
2023/06/21 08:34:00;;;;;;;12.98;7.43;;;;;;;28.92;63.80;100533.94;4985351;28;20215;-67
2023/06/21 08:36:26;;;;;;;12.77;8.43;;;;;;;29.03;63.17;100534.16;4986678;28;20230;-66
2023/06/21 08:38:53;;;;;;;14.38;8.10;;;;;;;29.40;61.50;100543.69;4984371;28;20488;-69
2023/06/21 08:41:19;;;;;;;10.05;7.40;;;;;;;29.69;60.50;100547.34;4986462;28;20223;-66
2023/06/21 08:43:46;;;;;;;8.65;7.35;;;;;;;29.99;59.91;100544.50;4984927;28;20657;-66
2023/06/21 08:46:13;;;;;;;13.23;8.00;;;;;;;29.98;59.67;100540.00;4985329;28;20232;-66
2023/06/21 08:48:41;;;;;;;11.20;7.30;;;;;;;29.98;59.74;100541.84;4989356;28;20232;-68
2023/06/21 08:51:07;;;;;;;10.77;7.10;;;;;;;29.51;60.90;100554.81;4990221;28;20292;-68
2023/06/21 08:53:45;;;;;;;15.02;8.10;;;;;;;29.28;61.12;100555.38;4991444;28;20208;-66
2023/06/21 08:56:17;;;;;;;10.15;7.30;;;;;;;29.20;60.87;100558.53;4987706;28;20561;-66
2023/06/21 08:58:58;;;;;;;9.85;6.82;;;;;;;29.10;61.62;100568.25;4990653;28;20224;-68
2023/06/21 09:01:31;;;;;;;9.05;6.95;;;;;;;29.31;61.07;100566.97;4987379;28;20213;-66
2023/06/21 09:03:59;;;;;;;10.18;7.80;;;;;;;29.22;62.28;100563.91;4991844;28;20627;-67
2023/06/21 09:06:27;;;;;;;10.70;7.50;;;;;;;29.42;61.73;100570.88;4989559;28;20673;-67
2023/06/21 09:08:54;;;;;;;10.93;7.47;;;;;;;29.65;60.20;100561.28;4987803;28;20616;-67
2023/06/21 09:11:22;;;;;;;10.05;7.10;;;;;;;30.21;58.69;100565.88;4990728;28;20220;-67
2023/06/21 09:13:50;;;;;;;9.07;7.53;;;;;;;29.24;61.46;100573.78;4987198;28;20193;-66
2023/06/21 09:16:17;;;;;;;13.05;7.55;;;;;;;29.43;61.09;100575.34;4991433;28;20208;-67
2023/06/21 09:18:44;;;;;;;8.05;6.75;;;;;;;29.50;60.29;100574.91;4969703;28;20223;-66
2023/06/21 09:21:11;;;;;;;9.73;6.80;;;;;;;29.08;60.23;100581.09;4988448;28;20208;-67
2023/06/21 09:23:39;;;;;;;9.70;6.68;;;;;;;28.01;64.54;100589.97;4988794;28;20202;-66
2023/06/21 09:26:09;;;;;;;8.20;6.32;;;;;;;28.21;64.89;100596.16;4986171;28;20204;-70
2023/06/21 09:28:36;;;;;;;9.23;6.47;;;;;;;28.60;62.93;100602.09;4991117;28;20235;-67
2023/06/21 09:31:02;;;;;;;7.47;6.60;;;;;;;28.43;63.15;100590.44;4988626;28;20208;-68
2023/06/21 09:33:29;;;;;;;9.65;7.10;;;;;;;28.05;63.97;100593.44;4988977;28;20267;-67
2023/06/21 09:35:57;;;;;;;9.15;6.47;;;;;;;28.37;63.29;100597.06;4987969;28;20204;-67
2023/06/21 09:38:28;;;;;;;8.02;6.35;;;;;;;28.52;62.15;100601.66;4987145;28;20300;-69
2023/06/21 09:40:55;;;;;;;7.85;5.85;;;;;;;28.75;60.48;100594.88;4977824;28;20205;-69
2023/06/21 09:43:22;;;;;;;7.47;5.70;;;;;;;28.40;59.85;100589.59;4988937;28;20208;-67
2023/06/21 09:46:03;;;;;;;7.40;5.78;;;;;;;28.26;59.18;100586.78;4988946;28;20193;-67
2023/06/21 09:48:34;;;;;;;7.85;5.38;;;;;;;28.84;58.43;100579.84;4989566;28;20223;-67
2023/06/21 09:51:03;;;;;;;6.43;5.72;;;;;;;29.37;57.09;100592.13;4991593;28;20796;-67
2023/06/21 09:53:29;;;;;;;7.18;5.72;;;;;;;29.10;55.86;100589.19;4988981;28;20215;-70
2023/06/21 09:55:56;;;;;;;6.75;5.47;;;;;;;29.96;55.83;100599.31;4987781;28;20208;-67
2023/06/21 09:58:23;;;;;;;6.82;5.90;;;;;;;30.01;54.22;100604.47;4973164;28;20700;-66
2023/06/21 10:00:50;;;;;;;6.78;5.57;;;;;;;29.53;53.22;100606.59;4986548;28;20201;-66
2023/06/21 10:03:20;;;;;;;6.40;5.57;;;;;;;29.84;52.57;100605.56;4985500;28;20213;-66
2023/06/21 10:06:01;;;;;;;6.78;5.25;;;;;;;29.85;52.83;100605.47;4988616;28;20231;-70
2023/06/21 10:08:33;;;;;;;6.35;5.20;;;;;;;29.41;52.03;100620.97;4991791;28;20267;-69
2023/06/21 10:11:01;;;;;;;7.65;5.53;;;;;;;29.27;53.74;100616.38;4992636;28;20279;-70
2023/06/21 10:13:32;;;;;;;6.45;5.25;;;;;;;29.27;52.43;100609.06;4984677;28;20684;-71
2023/06/21 10:16:03;;;;;;;8.82;5.45;;;;;;;29.30;51.75;100608.88;4992844;28;20243;-67
2023/06/21 10:18:30;;;;;;;8.75;5.18;;;;;;;29.32;52.88;100606.03;4987098;28;20221;-68
2023/06/21 10:21:03;;;;;;;7.20;5.53;;;;;;;29.48;52.08;100608.72;4989760;28;20224;-65
2023/06/21 10:23:33;;;;;;;6.47;5.15;;;;;;;29.37;50.52;100606.63;4989977;28;20227;-65
2023/06/21 10:26:14;;;;;;;6.28;5.20;;;;;;;29.82;49.96;100602.94;4990206;28;20261;-67
2023/06/21 10:28:45;;;;;;;7.75;5.25;;;;;;;29.97;49.47;100609.25;4989129;28;20597;-67
2023/06/21 10:31:15;;;;;;;7.63;5.70;;;;;;;29.57;49.60;100603.56;4989466;28;20673;-66
2023/06/21 10:33:44;;;;;;;7.75;5.65;;;;;;;29.56;51.08;100599.09;4988769;28;20287;-65
2023/06/21 10:36:16;;;;;;;6.75;5.43;;;;;;;30.07;50.50;100595.94;4988967;28;20283;-68
2023/06/21 10:38:46;;;;;;;6.65;5.32;;;;;;;30.36;49.90;100596.78;4987578;28;20252;-66
2023/06/21 10:41:14;;;;;;;8.52;5.70;;;;;;;30.41;47.77;100600.97;4987986;28;20197;-66
2023/06/21 10:43:42;;;;;;;6.78;5.07;;;;;;;30.75;46.32;100607.84;4989981;28;20200;-66
2023/06/21 10:46:11;;;;;;;6.90;5.47;;;;;;;30.72;44.13;100607.16;4989401;28;20201;-66
2023/06/21 10:48:39;;;;;;;6.57;5.32;;;;;;;30.21;44.52;100606.84;4988106;28;20232;-65
2023/06/21 10:51:09;;;;;;;6.55;4.93;;;;;;;30.05;44.38;100601.53;4990160;28;20215;-65
2023/06/21 10:53:36;;;;;;;7.40;4.70;;;;;;;29.45;46.35;100600.72;4989147;28;20764;-66
2023/06/21 10:56:05;;;;;;;5.75;4.68;;;;;;;29.33;47.28;100596.88;4988491;28;20201;-65
2023/06/21 10:58:32;;;;;;;6.03;5.10;;;;;;;29.77;47.57;100599.63;4989188;28;20213;-68
2023/06/21 11:00:59;;;;;;;6.07;4.97;;;;;;;29.76;46.62;100597.84;4988078;28;20211;-66
2023/06/21 11:03:29;;;;;;;7.93;5.30;;;;;;;30.20;46.52;100595.06;4989574;28;20335;-66
2023/06/21 11:06:15;;;;;;;7.00;5.22;;;;;;;30.54;45.34;100596.47;4988848;28;20656;-67
2023/06/21 11:08:42;;;;;;;7.47;5.25;;;;;;;29.93;45.73;100594.94;4988018;28;20250;-66
2023/06/21 11:11:08;;;;;;;8.40;5.25;;;;;;;30.10;44.97;100593.03;4989662;28;20424;-66
2023/06/21 11:13:37;;;;;;;9.95;6.10;;;;;;;29.97;45.25;100605.66;4986108;28;20235;-67
2023/06/21 11:16:11;;;;;;;7.97;5.85;;;;;;;29.86;46.53;100599.03;4985606;28;20732;-66
2023/06/21 11:18:38;;;;;;;7.93;5.85;;;;;;;30.22;45.94;100593.09;4986430;28;20224;-66
2023/06/21 11:21:05;;;;;;;6.18;5.32;;;;;;;30.38;45.65;100595.69;4986338;28;20215;-67
2023/06/21 11:23:47;;;;;;;7.47;5.70;;;;;;;30.19;45.78;100601.50;4986188;28;20255;-66